Main page
METAR-TAF:

METAR-TAF

Airports :

Morón Air Base

Morón de la Frontera, Spain

latitude: 37-09N, longitude: 005-37W, elevation: 87 m

Current weather observation

The report was made 44 minutes ago, at 06:30 UTC
Wind 4 kt from the Southeast
Temperature 25°C
Humidity 65%
Pressure 1012 hPa
Visibility 10 km or more
Few clouds at a height of 6000 ft

METAR: LEMO 130630Z 13004KT 9999 FEW060 25/18 Q1012 NOSIG

Time: 09:14 (07:14 UTC)

Forecast

The report was made 2 hours and 53 minutes ago, at 04:21 UTC
Forecast valid from 13 at 04 UTC to 14 at 03 UTC
Wind 3 kt from variable directions
Visibility 10 km or more
no clouds below 1500 m and no cumulonimbus
Probability 40% :
Temporary
from 13 at 04 UTC to 13 at 12 UTC
Scattered clouds at a height of 5000 ft, Cumulonimbus.
thunderstorm, rain
Becoming
from 13 at 06 UTC to 13 at 08 UTC
Wind 10 kt from the North

TAF: LEMO 130421Z 1304/1403 VRB03KT CAVOK TX38/1316Z TN23/1305Z PROB40 TEMPO 1304/1312 TSRA SCT050CB BECMG 1306/1308 01010KT

Weather observations and forecasts of more than 4000 airports (METAR and TAF reports).

The available stations are represented by yellow and red dots on the map.

Hover mouse over dot to see the name of the station.

Then click to see weather observations and forecasts.

To change the map : click on the green buttons with a black cross to zoom in, on the green button with a dash to zoom out, or on the green arrows for adjacent maps.


METAR-TAF: